createdAt,value
2018-10-05T00:01:49.819Z,14.27
2018-10-05T00:06:51.975Z,14.30
2018-10-05T00:11:54.111Z,14.25
2018-10-05T00:16:56.280Z,14.30
2018-10-05T00:21:58.442Z,14.24
2018-10-05T00:27:00.587Z,14.32
2018-10-05T00:32:02.772Z,14.28
2018-10-05T00:37:05.167Z,14.22
2018-10-05T00:42:07.379Z,14.31
2018-10-05T00:47:09.562Z,14.26
2018-10-05T00:52:11.747Z,14.32
2018-10-05T00:57:13.827Z,14.23
2018-10-05T01:02:15.994Z,14.30
2018-10-05T01:07:18.136Z,14.32
2018-10-05T01:12:20.291Z,14.34
2018-10-05T01:17:22.425Z,14.35
2018-10-05T01:22:24.932Z,14.24
2018-10-05T01:27:27.051Z,14.32
2018-10-05T01:32:29.211Z,14.26
2018-10-05T01:37:31.314Z,14.30
2018-10-05T01:42:33.426Z,14.22
2018-10-05T01:47:35.522Z,14.30
2018-10-05T01:52:37.655Z,14.29
2018-10-05T01:57:39.792Z,14.29
2018-10-05T02:02:41.986Z,14.31
2018-10-05T02:07:44.041Z,14.21
2018-10-05T02:12:46.212Z,14.22
2018-10-05T02:17:48.334Z,14.11
2018-10-05T02:22:50.506Z,14.24
2018-10-05T02:27:52.633Z,14.24
2018-10-05T02:32:54.813Z,14.18
2018-10-05T02:37:56.919Z,14.22
2018-10-05T02:42:59.062Z,14.17
2018-10-05T02:48:01.169Z,14.24
2018-10-05T02:53:03.458Z,14.12
2018-10-05T02:58:05.961Z,14.13
2018-10-05T03:03:08.123Z,14.24
2018-10-05T03:08:10.227Z,14.17
2018-10-05T03:13:12.380Z,14.24
2018-10-05T03:18:14.538Z,14.23
2018-10-05T03:23:16.656Z,14.27
2018-10-05T03:28:18.769Z,14.29
2018-10-05T03:33:20.941Z,14.24
2018-10-05T03:38:23.079Z,14.22
2018-10-05T03:43:25.222Z,14.16
2018-10-05T03:48:27.323Z,14.23
2018-10-05T03:53:29.478Z,14.23
2018-10-05T03:58:31.611Z,14.16
2018-10-05T04:03:33.728Z,14.14
2018-10-05T04:08:36.096Z,14.17
2018-10-05T04:13:38.221Z,14.15
2018-10-05T04:18:40.419Z,14.11
2018-10-05T04:23:42.538Z,14.12
2018-10-05T04:28:44.648Z,14.09
2018-10-05T04:33:47.096Z,14.08
2018-10-05T04:38:49.256Z,14.08
2018-10-05T04:43:51.386Z,14.15
2018-10-05T04:48:53.508Z,14.13
2018-10-05T04:53:55.661Z,14.13
2018-10-05T04:58:58.056Z,14.09
2018-10-05T05:04:00.211Z,14.16
2018-10-05T05:09:02.427Z,14.06
2018-10-05T05:14:04.561Z,14.07
2018-10-05T05:19:06.713Z,14.09
2018-10-05T05:24:08.841Z,14.08
2018-10-05T05:29:11.006Z,14.07
2018-10-05T05:34:13.214Z,14.10
2018-10-05T05:39:15.373Z,14.11
2018-10-05T05:44:17.539Z,14.05
2018-10-05T05:49:19.687Z,14.15
2018-10-05T05:54:21.866Z,14.14
2018-10-05T05:59:23.943Z,14.20
2018-10-05T06:04:26.086Z,14.18
2018-10-05T06:09:28.236Z,14.21
2018-10-05T06:14:30.370Z,14.24
2018-10-05T06:19:32.495Z,14.21
2018-10-05T06:24:34.632Z,14.24
2018-10-05T06:29:36.801Z,14.05
2018-10-05T06:34:38.979Z,14.13
2018-10-05T06:39:41.090Z,14.18
2018-10-05T06:44:43.179Z,14.23
2018-10-05T06:49:45.339Z,14.25
2018-10-05T06:54:47.471Z,14.31
2018-10-05T06:59:49.595Z,14.43
2018-10-05T07:04:52.063Z,14.53
2018-10-05T07:09:54.204Z,14.58
2018-10-05T07:14:56.342Z,14.63
2018-10-05T07:19:58.461Z,14.66
2018-10-05T07:25:00.607Z,14.70
2018-10-05T07:30:02.824Z,14.73
2018-10-05T07:35:05.076Z,14.74
2018-10-05T07:40:07.227Z,14.74
2018-10-05T07:45:09.338Z,14.73
2018-10-05T07:50:11.549Z,14.75
2018-10-05T07:55:13.669Z,14.83
2018-10-05T08:00:15.792Z,14.80
2018-10-05T08:05:17.913Z,14.87
2018-10-05T08:10:20.117Z,14.90
2018-10-05T08:15:22.246Z,15.01
2018-10-05T08:20:24.438Z,15.05
2018-10-05T08:25:26.582Z,15.09
2018-10-05T08:30:28.732Z,15.13
2018-10-05T08:35:30.915Z,15.17
2018-10-05T08:40:33.122Z,15.33
2018-10-05T08:45:35.319Z,15.32
2018-10-05T08:50:37.480Z,15.44
2018-10-05T08:55:39.636Z,15.49
2018-10-05T09:00:42.603Z,15.64
2018-10-05T09:05:44.827Z,15.77
2018-10-05T09:10:46.990Z,15.84
2018-10-05T09:15:49.151Z,15.90
2018-10-05T09:20:51.321Z,15.92
2018-10-05T09:25:53.511Z,15.86
2018-10-05T09:30:55.684Z,16.12
2018-10-05T09:35:57.882Z,16.19
2018-10-05T09:41:00.104Z,16.31
2018-10-05T09:46:02.275Z,16.30
2018-10-05T09:51:04.434Z,16.51
2018-10-05T09:56:06.655Z,16.61
2018-10-05T10:01:14.650Z,16.57
2018-10-05T10:06:16.776Z,16.93
2018-10-05T10:11:18.921Z,17.00
2018-10-05T10:16:21.111Z,17.22
2018-10-05T10:21:23.252Z,17.47
2018-10-05T10:26:25.424Z,17.65
2018-10-05T10:31:27.548Z,18.02
2018-10-05T10:36:29.760Z,18.31
2018-10-05T10:41:31.897Z,18.56
2018-10-05T10:46:34.204Z,18.84
2018-10-05T10:51:36.383Z,19.03
2018-10-05T10:56:38.525Z,19.54
2018-10-05T11:01:40.642Z,19.68
2018-10-05T11:06:42.766Z,19.96
2018-10-05T11:11:44.925Z,20.18
2018-10-05T11:16:47.088Z,20.22
2018-10-05T11:21:49.245Z,20.21
2018-10-05T11:26:51.427Z,20.13
2018-10-05T11:31:53.551Z,20.23
2018-10-05T11:36:55.769Z,20.63
2018-10-05T11:41:57.954Z,21.16
2018-10-05T11:47:00.138Z,21.39
2018-10-05T11:52:02.281Z,21.58
2018-10-05T11:57:04.472Z,22.13
2018-10-05T12:02:06.642Z,22.17
2018-10-05T12:07:08.790Z,22.32
2018-10-05T12:12:10.931Z,22.85
2018-10-05T12:17:13.103Z,23.07
2018-10-05T12:22:15.261Z,23.13
2018-10-05T12:27:17.401Z,23.49
2018-10-05T12:32:19.595Z,23.83
2018-10-05T12:37:21.780Z,23.94
2018-10-05T12:42:23.972Z,24.64
2018-10-05T12:47:26.172Z,24.98
2018-10-05T12:52:28.430Z,25.61
2018-10-05T12:57:30.584Z,26.11
2018-10-05T13:02:32.708Z,26.53
2018-10-05T13:07:35.049Z,26.75
2018-10-05T13:12:37.216Z,26.81
2018-10-05T13:17:39.448Z,27.10
2018-10-05T13:22:41.600Z,27.59
2018-10-05T13:27:43.876Z,27.97
2018-10-05T13:32:46.032Z,28.24
2018-10-05T13:37:48.292Z,28.41
2018-10-05T13:42:50.492Z,28.24
2018-10-05T13:47:52.619Z,28.33
2018-10-05T13:52:54.788Z,28.73
2018-10-05T13:57:56.959Z,29.06
2018-10-05T14:02:59.145Z,29.30
2018-10-05T14:08:01.302Z,29.48
2018-10-05T14:13:03.508Z,29.73
2018-10-05T14:18:05.713Z,29.84
2018-10-05T14:23:07.873Z,29.98
2018-10-05T14:28:09.980Z,29.76
2018-10-05T14:33:12.434Z,29.59
2018-10-05T14:38:14.658Z,29.67
2018-10-05T14:43:16.835Z,29.56
2018-10-05T14:48:19.008Z,28.63
2018-10-05T14:53:21.166Z,26.90
2018-10-05T14:58:23.347Z,25.70
2018-10-05T15:03:25.444Z,24.54
2018-10-05T15:08:27.642Z,23.74
2018-10-05T15:13:29.806Z,23.18
2018-10-05T15:18:32.025Z,22.79
2018-10-05T15:23:34.181Z,22.58
2018-10-05T15:28:36.344Z,22.26
2018-10-05T15:33:38.528Z,22.07
2018-10-05T15:38:40.767Z,21.98
2018-10-05T15:43:42.958Z,21.68
2018-10-05T15:48:45.111Z,21.28
2018-10-05T15:53:47.311Z,21.06
2018-10-05T15:58:49.514Z,20.90
2018-10-05T16:03:51.683Z,20.67
2018-10-05T16:08:53.850Z,20.57
2018-10-05T16:13:56.024Z,20.48
2018-10-05T16:18:58.158Z,20.31
2018-10-05T16:24:01.597Z,20.23
2018-10-05T16:29:04.063Z,20.09
2018-10-05T16:34:06.413Z,19.97
2018-10-05T16:39:10.022Z,19.81
2018-10-05T16:44:12.250Z,19.65
2018-10-05T16:49:14.460Z,19.53
2018-10-05T16:54:16.634Z,19.37
2018-10-05T16:59:18.804Z,19.26
2018-10-05T17:04:21.036Z,19.06
2018-10-05T17:09:23.215Z,18.93
2018-10-05T17:14:25.423Z,18.87
2018-10-05T17:19:27.583Z,18.78
2018-10-05T17:24:29.779Z,18.68
2018-10-05T17:29:31.962Z,18.55
2018-10-05T17:34:34.126Z,18.38
2018-10-05T17:39:36.356Z,18.40
2018-10-05T17:44:38.553Z,18.34
2018-10-05T17:49:40.725Z,18.19
2018-10-05T17:54:42.911Z,18.09
2018-10-05T17:59:45.048Z,18.03
2018-10-05T18:04:47.182Z,18.01
2018-10-05T18:09:49.448Z,17.92
2018-10-05T18:14:51.681Z,17.86
2018-10-05T18:19:53.849Z,17.77
2018-10-05T18:24:56.041Z,17.71
2018-10-05T18:29:58.259Z,17.65
2018-10-05T18:35:00.478Z,17.55
2018-10-05T18:40:02.776Z,17.48
2018-10-05T18:45:05.038Z,17.46
2018-10-05T18:50:07.485Z,17.39
2018-10-05T18:55:09.685Z,17.37
2018-10-05T19:00:12.018Z,17.37
2018-10-05T19:05:14.228Z,17.23
2018-10-05T19:10:16.472Z,17.21
2018-10-05T19:15:18.719Z,17.19
2018-10-05T19:20:20.994Z,17.11
2018-10-05T19:25:23.281Z,17.02
2018-10-05T19:30:25.877Z,17.04
2018-10-05T19:35:28.157Z,17.00
2018-10-05T19:40:30.465Z,16.90
2018-10-05T19:45:32.710Z,16.86
2018-10-05T19:50:34.917Z,16.84
2018-10-05T19:55:37.116Z,16.66
2018-10-05T20:00:39.304Z,16.72
2018-10-05T20:05:41.590Z,16.68
2018-10-05T20:10:43.852Z,16.66
2018-10-05T20:15:46.072Z,16.67
2018-10-05T20:20:48.284Z,16.61
2018-10-05T20:25:50.690Z,16.58
2018-10-05T20:30:52.895Z,16.53
2018-10-05T20:35:55.214Z,16.46
2018-10-05T20:40:57.346Z,16.38
2018-10-05T20:45:59.528Z,16.37
2018-10-05T20:51:01.716Z,16.32
2018-10-05T20:56:03.909Z,16.25
2018-10-05T21:01:06.309Z,16.22
2018-10-05T21:06:08.502Z,16.20
2018-10-05T21:11:10.676Z,16.11
2018-10-05T21:16:12.827Z,15.98
2018-10-05T21:21:15.067Z,15.94
2018-10-05T21:26:17.243Z,15.93
2018-10-05T21:31:19.479Z,15.90
2018-10-05T21:36:21.663Z,15.89
2018-10-05T21:41:23.912Z,15.83
2018-10-05T21:46:26.120Z,15.82
2018-10-05T21:51:28.304Z,15.78
2018-10-05T21:56:30.602Z,15.74
2018-10-05T22:01:32.752Z,15.66
2018-10-05T22:06:34.930Z,15.68
2018-10-05T22:11:37.055Z,15.57
2018-10-05T22:16:39.232Z,15.55
2018-10-05T22:21:41.371Z,15.47
2018-10-05T22:26:43.514Z,15.36
2018-10-05T22:31:45.682Z,15.44
2018-10-05T22:36:47.884Z,15.44
2018-10-05T22:41:50.090Z,15.45
2018-10-05T22:46:52.499Z,15.35
2018-10-05T22:51:54.638Z,15.41
2018-10-05T22:56:56.763Z,15.39
2018-10-05T23:01:58.948Z,15.29
2018-10-05T23:07:01.093Z,15.32
2018-10-05T23:12:03.271Z,15.23
2018-10-05T23:17:05.667Z,15.23
2018-10-05T23:22:07.840Z,15.18
2018-10-05T23:27:10.007Z,14.98
2018-10-05T23:32:12.121Z,15.00
2018-10-05T23:37:14.285Z,14.93
2018-10-05T23:42:16.448Z,14.90
2018-10-05T23:47:18.570Z,14.87
2018-10-05T23:52:40.703Z,14.71
2018-10-05T23:57:43.189Z,14.53
